createdAt,value
2019-05-10T13:26:39.863Z,25.359497
2019-05-10T13:27:39.709Z,24.664612
2019-05-10T13:28:39.844Z,24.080505
2019-05-10T13:29:40.543Z,23.707886
2019-05-10T13:30:40.712Z,23.486328
2019-05-10T13:31:42.591Z,23.345337
2019-05-10T13:32:39.638Z,23.294983
2019-05-10T13:33:41.727Z,23.234558
2019-05-10T13:34:39.796Z,23.2547
2019-05-10T13:35:39.601Z,23.234558
2019-05-10T13:36:39.585Z,23.224487
2019-05-10T13:37:39.587Z,23.214417
2019-05-10T13:38:43.082Z,23.224487
2019-05-10T13:39:40.706Z,23.184204
2019-05-10T13:40:45.380Z,23.164062
2019-05-10T13:41:40.539Z,23.123779
2019-05-10T13:42:43.560Z,23.143921
2019-05-10T13:43:40.519Z,23.143921
2019-05-10T13:44:42.767Z,23.143921
2019-05-10T13:45:39.658Z,23.153992
2019-05-10T13:46:39.425Z,23.164062
2019-05-10T13:47:39.372Z,23.143921
2019-05-10T13:48:39.720Z,23.143921
2019-05-10T13:49:39.461Z,23.123779
2019-05-10T13:50:39.361Z,23.164062
2019-05-10T13:51:39.413Z,23.164062
2019-05-10T13:52:41.306Z,23.294983
2019-05-10T13:53:39.481Z,23.365479
2019-05-10T13:54:39.310Z,22.559814
2019-05-10T13:55:39.428Z,22.438965
2019-05-10T13:56:45.129Z,22.37854
2019-05-10T13:57:40.398Z,22.418823
2019-05-10T13:58:39.409Z,22.459106
2019-05-10T13:59:39.358Z,22.418823
2019-05-10T14:00:39.447Z,22.388611
2019-05-10T14:01:39.415Z,22.348328
2019-05-10T14:02:40.209Z,22.036133
2019-05-10T14:03:44.254Z,21.613159
2019-05-10T14:04:40.282Z,21.331177
2019-05-10T14:05:40.101Z,21.159973
2019-05-10T14:06:39.219Z,21.079407
2019-05-10T14:07:39.206Z,21.089478
2019-05-10T14:08:42.607Z,21.582947
2019-05-10T14:09:40.166Z,22.076416
2019-05-10T14:10:39.220Z,21.975708
2019-05-10T14:11:40.348Z,21.774292
2019-05-10T14:12:40.178Z,21.593018
2019-05-10T14:13:41.222Z,21.482239
2019-05-10T14:14:39.115Z,21.49231
2019-05-10T14:15:39.271Z,21.462097
2019-05-10T14:16:39.229Z,21.49231
2019-05-10T14:17:39.192Z,21.482239
2019-05-10T14:18:39.175Z,21.49231
2019-05-10T14:19:39.070Z,21.462097
2019-05-10T14:20:39.239Z,21.482239
2019-05-10T14:21:39.158Z,21.462097
2019-05-10T14:22:39.177Z,21.452026
2019-05-10T14:23:39.196Z,21.482239
2019-05-10T14:24:39.160Z,21.452026
2019-05-10T14:25:40.122Z,21.431885
2019-05-10T14:26:39.111Z,21.431885
2019-05-10T14:27:39.048Z,21.452026
2019-05-10T14:28:39.056Z,21.462097
2019-05-10T14:29:39.124Z,21.452026
2019-05-10T14:30:39.076Z,21.452026
2019-05-10T14:31:40.079Z,21.462097
2019-05-10T14:32:39.051Z,21.462097
2019-05-10T14:33:39.034Z,21.462097
2019-05-10T14:34:43.883Z,21.482239
2019-05-10T14:35:40.025Z,21.512451
2019-05-10T14:36:40.726Z,21.512451
2019-05-10T14:37:38.914Z,21.532593
2019-05-10T14:38:38.894Z,21.552734
2019-05-10T14:39:38.995Z,21.562805
2019-05-10T14:40:38.892Z,21.613159
2019-05-10T14:41:39.930Z,21.593018
2019-05-10T14:42:39.961Z,21.633301
2019-05-10T14:43:38.945Z,21.643372
2019-05-10T14:44:39.149Z,21.663513
2019-05-10T14:45:38.913Z,21.673584
2019-05-10T14:46:38.817Z,21.673584
2019-05-10T14:47:47.472Z,21.683655
2019-05-10T14:48:39.816Z,21.683655
2019-05-10T14:49:41.985Z,21.673584
2019-05-10T14:50:39.878Z,21.683655
2019-05-10T14:51:56.566Z,21.683655
2019-05-10T14:52:39.757Z,21.703796
2019-05-10T14:53:38.779Z,21.683655
2019-05-10T14:54:43.493Z,21.703796
2019-05-10T14:55:39.712Z,21.713867
2019-05-10T14:56:38.740Z,21.703796
2019-05-10T14:57:38.727Z,21.683655
2019-05-10T14:58:38.681Z,21.703796
2019-05-10T14:59:38.772Z,21.703796
2019-05-10T15:00:38.773Z,21.703796
2019-05-10T15:01:42.681Z,21.703796
2019-05-10T15:02:39.739Z,21.643372
2019-05-10T15:03:45.148Z,21.613159
2019-05-10T15:04:44.837Z,21.582947
2019-05-10T15:05:39.668Z,21.522522
2019-05-10T15:06:38.997Z,21.522522
2019-05-10T15:07:38.700Z,21.532593
2019-05-10T15:08:38.695Z,21.522522
2019-05-10T15:09:38.674Z,21.49231
2019-05-10T15:10:39.773Z,21.49231
2019-05-10T15:11:38.592Z,21.482239
2019-05-10T15:12:38.664Z,21.522522
2019-05-10T15:13:38.611Z,21.532593
2019-05-10T15:14:38.629Z,22.308044
2019-05-10T15:15:38.792Z,24.412842
2019-05-10T15:16:38.788Z,25.228577
2019-05-10T15:17:38.651Z,33.426208
2019-05-10T15:18:38.603Z,34.463501
2019-05-10T15:19:38.490Z,34.604492
2019-05-10T15:20:38.724Z,31.472473
2019-05-10T15:21:38.593Z,31.099854
2019-05-10T15:22:38.458Z,31.341553
2019-05-10T15:23:38.538Z,31.724243
2019-05-10T15:24:38.506Z,30.656738
2019-05-10T15:25:38.468Z,30.8078
2019-05-10T15:26:43.643Z,31.250916
2019-05-10T15:27:39.511Z,30.596313
2019-05-10T15:28:40.161Z,26.759338
2019-05-10T15:29:38.634Z,25.007019
2019-05-10T15:30:39.091Z,24.050293
2019-05-10T15:31:39.385Z,23.466187
